sensor_id;sensor_type;location;lat;lon;timestamp;temperature;humidity
26278;DHT22;14000;52.056;8.510;2023-08-31T00:01:08;12.50;99.90
26278;DHT22;14000;52.056;8.510;2023-08-31T00:03:34;12.50;99.90
26278;DHT22;14000;52.056;8.510;2023-08-31T00:06:04;12.40;99.90
26278;DHT22;14000;52.056;8.510;2023-08-31T00:08:30;12.40;99.90
26278;DHT22;14000;52.056;8.510;2023-08-31T00:11:00;12.40;99.90
26278;DHT22;14000;52.056;8.510;2023-08-31T00:13:27;12.40;99.90
26278;DHT22;14000;52.056;8.510;2023-08-31T00:15:56;12.40;99.90
26278;DHT22;14000;52.056;8.510;2023-08-31T00:18:23;12.30;99.90
26278;DHT22;14000;52.056;8.510;2023-08-31T00:20:50;12.30;99.90
26278;DHT22;14000;52.056;8.510;2023-08-31T00:23:15;12.30;99.90
26278;DHT22;14000;52.056;8.510;2023-08-31T00:25:41;12.20;99.90
26278;DHT22;14000;52.056;8.510;2023-08-31T00:28:09;12.20;99.90
26278;DHT22;14000;52.056;8.510;2023-08-31T00:30:34;12.20;99.90
26278;DHT22;14000;52.056;8.510;2023-08-31T00:33:00;12.20;99.90
26278;DHT22;14000;52.056;8.510;2023-08-31T00:35:26;12.20;99.90
26278;DHT22;14000;52.056;8.510;2023-08-31T00:37:53;12.30;99.90
26278;DHT22;14000;52.056;8.510;2023-08-31T00:40:23;12.20;99.90
26278;DHT22;14000;52.056;8.510;2023-08-31T00:42:49;12.20;99.90
26278;DHT22;14000;52.056;8.510;2023-08-31T00:45:15;12.20;99.90
26278;DHT22;14000;52.056;8.510;2023-08-31T00:47:41;12.20;99.90
26278;DHT22;14000;52.056;8.510;2023-08-31T00:50:07;12.10;99.90
26278;DHT22;14000;52.056;8.510;2023-08-31T00:52:33;12.10;99.90
26278;DHT22;14000;52.056;8.510;2023-08-31T00:55:00;12.20;99.90
26278;DHT22;14000;52.056;8.510;2023-08-31T00:57:28;12.10;99.90
26278;DHT22;14000;52.056;8.510;2023-08-31T00:59:53;12.10;99.90
26278;DHT22;14000;52.056;8.510;2023-08-31T01:05:25;12.10;99.90
26278;DHT22;14000;52.056;8.510;2023-08-31T01:08:02;12.10;99.90
26278;DHT22;14000;52.056;8.510;2023-08-31T01:13:18;12.10;99.90
26278;DHT22;14000;52.056;8.510;2023-08-31T01:15:46;12.10;99.90
26278;DHT22;14000;52.056;8.510;2023-08-31T01:18:16;12.20;99.90
26278;DHT22;14000;52.056;8.510;2023-08-31T01:21:05;12.20;99.90
26278;DHT22;14000;52.056;8.510;2023-08-31T01:23:55;12.20;99.90
26278;DHT22;14000;52.056;8.510;2023-08-31T01:26:22;12.10;99.90
26278;DHT22;14000;52.056;8.510;2023-08-31T01:28:49;12.20;99.90
26278;DHT22;14000;52.056;8.510;2023-08-31T01:31:15;12.20;99.90
26278;DHT22;14000;52.056;8.510;2023-08-31T01:33:41;12.20;99.90
26278;DHT22;14000;52.056;8.510;2023-08-31T01:36:30;12.20;99.90
26278;DHT22;14000;52.056;8.510;2023-08-31T01:39:15;12.20;99.90
26278;DHT22;14000;52.056;8.510;2023-08-31T01:41:52;12.10;99.90
26278;DHT22;14000;52.056;8.510;2023-08-31T01:44:21;12.10;99.90
26278;DHT22;14000;52.056;8.510;2023-08-31T01:46:51;12.10;99.90
26278;DHT22;14000;52.056;8.510;2023-08-31T01:49:17;12.10;99.90
26278;DHT22;14000;52.056;8.510;2023-08-31T01:51:44;12.10;99.90
26278;DHT22;14000;52.056;8.510;2023-08-31T01:54:10;12.10;99.90
26278;DHT22;14000;52.056;8.510;2023-08-31T01:56:35;12.10;99.90
26278;DHT22;14000;52.056;8.510;2023-08-31T01:59:01;12.10;99.90
26278;DHT22;14000;52.056;8.510;2023-08-31T02:01:26;12.00;99.90
26278;DHT22;14000;52.056;8.510;2023-08-31T02:03:52;12.00;99.90
26278;DHT22;14000;52.056;8.510;2023-08-31T02:06:17;12.00;99.90
26278;DHT22;14000;52.056;8.510;2023-08-31T02:08:43;12.00;99.90
26278;DHT22;14000;52.056;8.510;2023-08-31T02:11:12;11.90;99.90
26278;DHT22;14000;52.056;8.510;2023-08-31T02:13:38;11.90;99.90
26278;DHT22;14000;52.056;8.510;2023-08-31T02:16:03;11.90;99.90
26278;DHT22;14000;52.056;8.510;2023-08-31T02:18:29;12.00;99.90
26278;DHT22;14000;52.056;8.510;2023-08-31T02:20:55;12.00;99.90
26278;DHT22;14000;52.056;8.510;2023-08-31T02:23:20;11.90;99.90
26278;DHT22;14000;52.056;8.510;2023-08-31T02:25:46;11.90;99.90
26278;DHT22;14000;52.056;8.510;2023-08-31T02:28:11;11.90;99.90
26278;DHT22;14000;52.056;8.510;2023-08-31T02:30:37;11.90;99.90
26278;DHT22;14000;52.056;8.510;2023-08-31T02:33:03;11.90;99.90
26278;DHT22;14000;52.056;8.510;2023-08-31T02:35:29;12.00;99.90
26278;DHT22;14000;52.056;8.510;2023-08-31T02:37:54;11.90;99.90
26278;DHT22;14000;52.056;8.510;2023-08-31T02:40:20;11.90;99.90
26278;DHT22;14000;52.056;8.510;2023-08-31T02:42:49;11.90;99.90
26278;DHT22;14000;52.056;8.510;2023-08-31T02:45:15;11.90;99.90
26278;DHT22;14000;52.056;8.510;2023-08-31T02:47:41;11.90;99.90
26278;DHT22;14000;52.056;8.510;2023-08-31T02:50:07;11.90;99.90
26278;DHT22;14000;52.056;8.510;2023-08-31T02:52:33;11.90;99.90
26278;DHT22;14000;52.056;8.510;2023-08-31T02:54:58;11.90;99.90
26278;DHT22;14000;52.056;8.510;2023-08-31T02:57:24;11.90;99.90
26278;DHT22;14000;52.056;8.510;2023-08-31T02:59:50;12.00;99.90
26278;DHT22;14000;52.056;8.510;2023-08-31T03:02:15;11.90;99.90
26278;DHT22;14000;52.056;8.510;2023-08-31T03:04:41;11.90;99.90
26278;DHT22;14000;52.056;8.510;2023-08-31T03:07:07;11.90;99.90
26278;DHT22;14000;52.056;8.510;2023-08-31T03:09:32;11.90;99.90
26278;DHT22;14000;52.056;8.510;2023-08-31T03:11:58;12.00;99.90
26278;DHT22;14000;52.056;8.510;2023-08-31T03:14:23;12.00;99.90
26278;DHT22;14000;52.056;8.510;2023-08-31T03:16:49;11.90;99.90
26278;DHT22;14000;52.056;8.510;2023-08-31T03:19:15;11.90;99.90
26278;DHT22;14000;52.056;8.510;2023-08-31T03:21:40;11.90;99.90
26278;DHT22;14000;52.056;8.510;2023-08-31T03:24:06;11.90;99.90
26278;DHT22;14000;52.056;8.510;2023-08-31T03:26:31;11.80;99.90
26278;DHT22;14000;52.056;8.510;2023-08-31T03:28:57;11.80;99.90
26278;DHT22;14000;52.056;8.510;2023-08-31T03:31:23;11.80;99.90
26278;DHT22;14000;52.056;8.510;2023-08-31T03:33:50;11.80;99.90
26278;DHT22;14000;52.056;8.510;2023-08-31T03:36:16;11.80;99.90
26278;DHT22;14000;52.056;8.510;2023-08-31T03:38:41;11.80;99.90
26278;DHT22;14000;52.056;8.510;2023-08-31T03:41:07;11.80;99.90
26278;DHT22;14000;52.056;8.510;2023-08-31T03:43:33;11.80;99.90
26278;DHT22;14000;52.056;8.510;2023-08-31T03:45:59;11.70;99.90
26278;DHT22;14000;52.056;8.510;2023-08-31T03:48:25;11.70;99.90
26278;DHT22;14000;52.056;8.510;2023-08-31T03:50:54;11.70;99.90
26278;DHT22;14000;52.056;8.510;2023-08-31T03:53:20;11.70;99.90
26278;DHT22;14000;52.056;8.510;2023-08-31T03:55:46;11.80;99.90
26278;DHT22;14000;52.056;8.510;2023-08-31T03:58:11;11.70;99.90
26278;DHT22;14000;52.056;8.510;2023-08-31T04:00:38;11.70;99.90
26278;DHT22;14000;52.056;8.510;2023-08-31T04:03:04;11.70;99.90
26278;DHT22;14000;52.056;8.510;2023-08-31T04:05:33;11.60;99.90
26278;DHT22;14000;52.056;8.510;2023-08-31T04:08:00;11.70;99.90
26278;DHT22;14000;52.056;8.510;2023-08-31T04:10:25;11.70;99.90
26278;DHT22;14000;52.056;8.510;2023-08-31T04:12:52;11.70;99.90
26278;DHT22;14000;52.056;8.510;2023-08-31T04:15:17;11.70;99.90
26278;DHT22;14000;52.056;8.510;2023-08-31T04:17:43;11.70;99.90
26278;DHT22;14000;52.056;8.510;2023-08-31T04:20:09;11.70;99.90
26278;DHT22;14000;52.056;8.510;2023-08-31T04:22:35;11.70;99.90
26278;DHT22;14000;52.056;8.510;2023-08-31T04:25:01;11.70;99.90
26278;DHT22;14000;52.056;8.510;2023-08-31T04:27:26;11.80;99.90
26278;DHT22;14000;52.056;8.510;2023-08-31T04:29:53;11.80;99.90
26278;DHT22;14000;52.056;8.510;2023-08-31T04:32:18;11.80;99.90
26278;DHT22;14000;52.056;8.510;2023-08-31T04:34:44;11.80;99.90
26278;DHT22;14000;52.056;8.510;2023-08-31T04:37:09;11.80;99.90
26278;DHT22;14000;52.056;8.510;2023-08-31T04:39:35;11.80;99.90
26278;DHT22;14000;52.056;8.510;2023-08-31T04:42:00;11.80;99.90
26278;DHT22;14000;52.056;8.510;2023-08-31T04:44:26;11.80;99.90
26278;DHT22;14000;52.056;8.510;2023-08-31T04:46:51;11.80;99.90
26278;DHT22;14000;52.056;8.510;2023-08-31T04:49:17;11.80;99.90
26278;DHT22;14000;52.056;8.510;2023-08-31T04:51:44;11.90;99.90
26278;DHT22;14000;52.056;8.510;2023-08-31T04:54:10;11.90;99.90
26278;DHT22;14000;52.056;8.510;2023-08-31T04:56:36;11.90;99.90
26278;DHT22;14000;52.056;8.510;2023-08-31T04:59:02;11.90;99.90
26278;DHT22;14000;52.056;8.510;2023-08-31T05:01:28;11.90;99.90
26278;DHT22;14000;52.056;8.510;2023-08-31T05:03:54;11.90;99.90
26278;DHT22;14000;52.056;8.510;2023-08-31T05:06:20;11.90;99.90
26278;DHT22;14000;52.056;8.510;2023-08-31T05:08:47;11.90;99.90
26278;DHT22;14000;52.056;8.510;2023-08-31T05:11:13;12.00;99.90
26278;DHT22;14000;52.056;8.510;2023-08-31T05:13:38;11.90;99.90
26278;DHT22;14000;52.056;8.510;2023-08-31T05:16:07;12.00;99.90
26278;DHT22;14000;52.056;8.510;2023-08-31T05:18:33;12.00;99.90
26278;DHT22;14000;52.056;8.510;2023-08-31T05:20:59;12.00;99.90
26278;DHT22;14000;52.056;8.510;2023-08-31T05:23:24;11.90;99.90
26278;DHT22;14000;52.056;8.510;2023-08-31T05:25:50;11.90;99.90
26278;DHT22;14000;52.056;8.510;2023-08-31T05:28:15;12.00;99.90
26278;DHT22;14000;52.056;8.510;2023-08-31T05:30:51;12.00;99.90
26278;DHT22;14000;52.056;8.510;2023-08-31T05:33:17;12.00;99.90
26278;DHT22;14000;52.056;8.510;2023-08-31T05:35:44;12.00;99.90
26278;DHT22;14000;52.056;8.510;2023-08-31T05:38:09;12.10;99.90
26278;DHT22;14000;52.056;8.510;2023-08-31T05:40:35;12.10;99.90
26278;DHT22;14000;52.056;8.510;2023-08-31T05:43:01;12.10;99.90
26278;DHT22;14000;52.056;8.510;2023-08-31T05:45:31;12.10;99.90
26278;DHT22;14000;52.056;8.510;2023-08-31T05:47:56;12.10;99.90
26278;DHT22;14000;52.056;8.510;2023-08-31T05:50:22;12.00;99.90
26278;DHT22;14000;52.056;8.510;2023-08-31T05:52:48;12.00;99.90
26278;DHT22;14000;52.056;8.510;2023-08-31T05:55:13;12.00;99.90
26278;DHT22;14000;52.056;8.510;2023-08-31T05:57:39;12.00;99.90
26278;DHT22;14000;52.056;8.510;2023-08-31T06:00:07;12.00;99.90
26278;DHT22;14000;52.056;8.510;2023-08-31T06:02:33;12.00;99.90
26278;DHT22;14000;52.056;8.510;2023-08-31T06:04:59;12.10;99.90
26278;DHT22;14000;52.056;8.510;2023-08-31T06:07:25;12.10;99.90
26278;DHT22;14000;52.056;8.510;2023-08-31T06:09:50;12.10;99.90
26278;DHT22;14000;52.056;8.510;2023-08-31T06:12:16;12.10;99.90
26278;DHT22;14000;52.056;8.510;2023-08-31T06:14:41;12.10;99.90
26278;DHT22;14000;52.056;8.510;2023-08-31T06:17:07;12.10;99.90
26278;DHT22;14000;52.056;8.510;2023-08-31T06:19:34;12.10;99.90
26278;DHT22;14000;52.056;8.510;2023-08-31T06:21:59;12.10;99.90
26278;DHT22;14000;52.056;8.510;2023-08-31T06:24:25;12.10;99.90
26278;DHT22;14000;52.056;8.510;2023-08-31T06:26:50;12.10;99.90
26278;DHT22;14000;52.056;8.510;2023-08-31T06:29:17;12.10;99.90
26278;DHT22;14000;52.056;8.510;2023-08-31T06:31:43;12.20;99.90
26278;DHT22;14000;52.056;8.510;2023-08-31T06:34:08;12.10;99.90
26278;DHT22;14000;52.056;8.510;2023-08-31T06:36:34;12.20;99.90
26278;DHT22;14000;52.056;8.510;2023-08-31T06:39:00;12.20;99.90
26278;DHT22;14000;52.056;8.510;2023-08-31T06:41:25;12.30;99.90
26278;DHT22;14000;52.056;8.510;2023-08-31T06:43:51;12.30;99.90
26278;DHT22;14000;52.056;8.510;2023-08-31T06:46:16;12.30;99.90
26278;DHT22;14000;52.056;8.510;2023-08-31T06:48:42;12.40;99.90
26278;DHT22;14000;52.056;8.510;2023-08-31T06:51:07;12.50;99.90
26278;DHT22;14000;52.056;8.510;2023-08-31T06:53:33;12.40;99.90
26278;DHT22;14000;52.056;8.510;2023-08-31T06:55:58;12.60;99.90
26278;DHT22;14000;52.056;8.510;2023-08-31T06:58:24;12.60;99.90
26278;DHT22;14000;52.056;8.510;2023-08-31T07:00:50;12.60;99.90
26278;DHT22;14000;52.056;8.510;2023-08-31T07:03:15;12.50;99.90
26278;DHT22;14000;52.056;8.510;2023-08-31T07:05:42;12.60;99.90
26278;DHT22;14000;52.056;8.510;2023-08-31T07:08:08;12.60;99.90
26278;DHT22;14000;52.056;8.510;2023-08-31T07:10:34;12.70;99.90
26278;DHT22;14000;52.056;8.510;2023-08-31T07:13:04;12.70;99.90
26278;DHT22;14000;52.056;8.510;2023-08-31T07:15:30;12.80;99.90
26278;DHT22;14000;52.056;8.510;2023-08-31T07:17:56;12.90;99.90
26278;DHT22;14000;52.056;8.510;2023-08-31T07:20:21;12.90;99.90
26278;DHT22;14000;52.056;8.510;2023-08-31T07:22:47;13.00;99.90
26278;DHT22;14000;52.056;8.510;2023-08-31T07:25:13;13.00;99.90
26278;DHT22;14000;52.056;8.510;2023-08-31T07:27:39;13.00;99.90
26278;DHT22;14000;52.056;8.510;2023-08-31T07:30:05;13.00;99.90
26278;DHT22;14000;52.056;8.510;2023-08-31T07:32:31;13.00;99.90
26278;DHT22;14000;52.056;8.510;2023-08-31T07:34:56;13.10;99.90
26278;DHT22;14000;52.056;8.510;2023-08-31T07:37:22;13.20;99.90
26278;DHT22;14000;52.056;8.510;2023-08-31T07:39:48;13.40;99.90
26278;DHT22;14000;52.056;8.510;2023-08-31T07:42:13;13.40;99.90
26278;DHT22;14000;52.056;8.510;2023-08-31T07:44:39;13.40;99.90
26278;DHT22;14000;52.056;8.510;2023-08-31T07:47:07;13.40;99.90
26278;DHT22;14000;52.056;8.510;2023-08-31T07:49:32;13.40;99.90
26278;DHT22;14000;52.056;8.510;2023-08-31T07:51:58;13.50;99.90
26278;DHT22;14000;52.056;8.510;2023-08-31T07:54:23;13.40;99.90
26278;DHT22;14000;52.056;8.510;2023-08-31T07:56:49;13.40;99.90
26278;DHT22;14000;52.056;8.510;2023-08-31T07:59:16;13.40;99.90
26278;DHT22;14000;52.056;8.510;2023-08-31T08:01:42;13.50;99.90
26278;DHT22;14000;52.056;8.510;2023-08-31T08:04:08;13.50;99.90
26278;DHT22;14000;52.056;8.510;2023-08-31T08:06:33;13.50;99.90
26278;DHT22;14000;52.056;8.510;2023-08-31T08:08:59;13.40;99.90
26278;DHT22;14000;52.056;8.510;2023-08-31T08:11:24;13.30;99.90
26278;DHT22;14000;52.056;8.510;2023-08-31T08:13:50;13.30;99.90
26278;DHT22;14000;52.056;8.510;2023-08-31T08:16:15;13.30;99.90
26278;DHT22;14000;52.056;8.510;2023-08-31T08:18:41;13.40;99.90
26278;DHT22;14000;52.056;8.510;2023-08-31T08:21:07;13.50;99.90
26278;DHT22;14000;52.056;8.510;2023-08-31T08:23:32;13.50;99.90
26278;DHT22;14000;52.056;8.510;2023-08-31T08:25:58;13.50;99.90
26278;DHT22;14000;52.056;8.510;2023-08-31T08:28:26;13.50;99.90
26278;DHT22;14000;52.056;8.510;2023-08-31T08:30:52;13.50;99.90
26278;DHT22;14000;52.056;8.510;2023-08-31T08:33:17;13.60;99.90
26278;DHT22;14000;52.056;8.510;2023-08-31T08:35:43;13.50;99.90
26278;DHT22;14000;52.056;8.510;2023-08-31T08:38:09;13.60;99.90
26278;DHT22;14000;52.056;8.510;2023-08-31T08:40:35;13.70;99.90
26278;DHT22;14000;52.056;8.510;2023-08-31T08:43:01;13.70;99.90
26278;DHT22;14000;52.056;8.510;2023-08-31T08:45:30;13.80;99.90
26278;DHT22;14000;52.056;8.510;2023-08-31T08:48:03;14.00;99.90
26278;DHT22;14000;52.056;8.510;2023-08-31T08:50:31;14.00;99.90
26278;DHT22;14000;52.056;8.510;2023-08-31T08:52:59;14.00;99.90
26278;DHT22;14000;52.056;8.510;2023-08-31T08:55:25;14.00;99.90
26278;DHT22;14000;52.056;8.510;2023-08-31T08:57:51;14.00;99.90
26278;DHT22;14000;52.056;8.510;2023-08-31T09:00:16;14.10;99.90
26278;DHT22;14000;52.056;8.510;2023-08-31T09:02:42;14.30;99.90
26278;DHT22;14000;52.056;8.510;2023-08-31T09:05:08;14.30;99.90
26278;DHT22;14000;52.056;8.510;2023-08-31T09:07:36;14.50;99.90
26278;DHT22;14000;52.056;8.510;2023-08-31T09:10:03;14.60;99.90
26278;DHT22;14000;52.056;8.510;2023-08-31T09:12:29;14.60;99.90
26278;DHT22;14000;52.056;8.510;2023-08-31T09:15:01;14.70;99.90
26278;DHT22;14000;52.056;8.510;2023-08-31T09:17:41;14.70;99.90
26278;DHT22;14000;52.056;8.510;2023-08-31T09:20:09;14.70;99.90
26278;DHT22;14000;52.056;8.510;2023-08-31T09:22:35;14.70;99.90
26278;DHT22;14000;52.056;8.510;2023-08-31T09:25:01;14.70;99.90
26278;DHT22;14000;52.056;8.510;2023-08-31T09:27:28;14.70;99.90
26278;DHT22;14000;52.056;8.510;2023-08-31T09:29:57;14.70;99.90
26278;DHT22;14000;52.056;8.510;2023-08-31T09:32:23;14.80;99.90
26278;DHT22;14000;52.056;8.510;2023-08-31T09:34:49;14.70;99.90
26278;DHT22;14000;52.056;8.510;2023-08-31T09:37:16;14.70;99.90
26278;DHT22;14000;52.056;8.510;2023-08-31T09:39:42;14.70;99.90
26278;DHT22;14000;52.056;8.510;2023-08-31T09:42:08;14.70;99.90
26278;DHT22;14000;52.056;8.510;2023-08-31T09:44:40;14.80;99.90
26278;DHT22;14000;52.056;8.510;2023-08-31T09:47:05;14.80;99.90
26278;DHT22;14000;52.056;8.510;2023-08-31T09:49:31;15.00;99.90
26278;DHT22;14000;52.056;8.510;2023-08-31T09:52:01;15.00;99.90
26278;DHT22;14000;52.056;8.510;2023-08-31T09:54:29;15.10;99.90
26278;DHT22;14000;52.056;8.510;2023-08-31T09:56:55;15.20;99.90
26278;DHT22;14000;52.056;8.510;2023-08-31T09:59:22;15.30;99.90
26278;DHT22;14000;52.056;8.510;2023-08-31T10:01:48;15.40;99.90
26278;DHT22;14000;52.056;8.510;2023-08-31T10:04:13;15.40;99.90
26278;DHT22;14000;52.056;8.510;2023-08-31T10:06:40;15.40;99.90
26278;DHT22;14000;52.056;8.510;2023-08-31T10:09:06;15.30;99.90
26278;DHT22;14000;52.056;8.510;2023-08-31T10:11:33;15.20;99.90
26278;DHT22;14000;52.056;8.510;2023-08-31T10:13:59;15.10;99.90
26278;DHT22;14000;52.056;8.510;2023-08-31T10:16:28;14.80;99.90
26278;DHT22;14000;52.056;8.510;2023-08-31T10:18:58;14.30;99.90
26278;DHT22;14000;52.056;8.510;2023-08-31T10:21:23;14.00;99.90
26278;DHT22;14000;52.056;8.510;2023-08-31T10:23:50;13.90;99.90
26278;DHT22;14000;52.056;8.510;2023-08-31T10:26:29;14.00;99.90
26278;DHT22;14000;52.056;8.510;2023-08-31T10:28:55;14.10;99.90
26278;DHT22;14000;52.056;8.510;2023-08-31T10:31:22;14.20;99.90
26278;DHT22;14000;52.056;8.510;2023-08-31T10:33:59;14.20;99.90
26278;DHT22;14000;52.056;8.510;2023-08-31T10:39:06;14.10;99.90
26278;DHT22;14000;52.056;8.510;2023-08-31T10:41:36;14.00;99.90
26278;DHT22;14000;52.056;8.510;2023-08-31T10:44:01;14.10;99.90
26278;DHT22;14000;52.056;8.510;2023-08-31T10:46:41;14.30;99.90
26278;DHT22;14000;52.056;8.510;2023-08-31T10:51:40;14.60;99.90
26278;DHT22;14000;52.056;8.510;2023-08-31T10:56:32;14.90;99.90
26278;DHT22;14000;52.056;8.510;2023-08-31T10:59:00;14.90;99.90
26278;DHT22;14000;52.056;8.510;2023-08-31T11:04:16;14.80;99.90
26278;DHT22;14000;52.056;8.510;2023-08-31T11:06:42;14.90;99.90
26278;DHT22;14000;52.056;8.510;2023-08-31T11:09:20;15.10;99.90
26278;DHT22;14000;52.056;8.510;2023-08-31T11:11:47;15.50;99.90
26278;DHT22;14000;52.056;8.510;2023-08-31T11:14:15;15.90;99.90
26278;DHT22;14000;52.056;8.510;2023-08-31T11:16:42;16.00;99.90
26278;DHT22;14000;52.056;8.510;2023-08-31T11:19:08;16.30;99.90
26278;DHT22;14000;52.056;8.510;2023-08-31T11:21:36;17.00;99.90
26278;DHT22;14000;52.056;8.510;2023-08-31T11:24:02;18.10;99.90
26278;DHT22;14000;52.056;8.510;2023-08-31T11:26:31;19.10;99.90
26278;DHT22;14000;52.056;8.510;2023-08-31T11:28:57;19.80;99.90
26278;DHT22;14000;52.056;8.510;2023-08-31T11:31:26;19.30;99.90
26278;DHT22;14000;52.056;8.510;2023-08-31T11:33:53;18.50;99.90
26278;DHT22;14000;52.056;8.510;2023-08-31T11:36:19;18.10;99.90
26278;DHT22;14000;52.056;8.510;2023-08-31T11:38:45;17.80;99.90
26278;DHT22;14000;52.056;8.510;2023-08-31T11:41:12;17.40;99.90
26278;DHT22;14000;52.056;8.510;2023-08-31T11:43:38;16.90;99.90
26278;DHT22;14000;52.056;8.510;2023-08-31T11:46:04;16.40;99.90
26278;DHT22;14000;52.056;8.510;2023-08-31T11:48:31;15.90;99.90
26278;DHT22;14000;52.056;8.510;2023-08-31T11:50:57;15.30;99.90
26278;DHT22;14000;52.056;8.510;2023-08-31T11:53:24;14.70;99.90
26278;DHT22;14000;52.056;8.510;2023-08-31T11:55:53;14.40;99.90
26278;DHT22;14000;52.056;8.510;2023-08-31T11:58:20;14.30;99.90
26278;DHT22;14000;52.056;8.510;2023-08-31T12:00:54;14.40;99.90
26278;DHT22;14000;52.056;8.510;2023-08-31T12:03:19;14.60;99.90
26278;DHT22;14000;52.056;8.510;2023-08-31T12:05:46;14.60;99.90
26278;DHT22;14000;52.056;8.510;2023-08-31T12:08:15;14.90;99.90
26278;DHT22;14000;52.056;8.510;2023-08-31T12:10:42;15.10;99.90
26278;DHT22;14000;52.056;8.510;2023-08-31T12:13:09;15.30;99.90
26278;DHT22;14000;52.056;8.510;2023-08-31T12:15:34;15.30;99.90
26278;DHT22;14000;52.056;8.510;2023-08-31T12:18:10;15.30;99.90
26278;DHT22;14000;52.056;8.510;2023-08-31T12:20:46;15.10;99.90
26278;DHT22;14000;52.056;8.510;2023-08-31T12:23:12;14.90;99.90
26278;DHT22;14000;52.056;8.510;2023-08-31T12:25:48;14.60;99.90
26278;DHT22;14000;52.056;8.510;2023-08-31T12:28:14;14.30;99.90
26278;DHT22;14000;52.056;8.510;2023-08-31T12:30:42;13.90;99.90
26278;DHT22;14000;52.056;8.510;2023-08-31T12:33:09;13.80;99.90
26278;DHT22;14000;52.056;8.510;2023-08-31T12:35:35;13.80;99.90
26278;DHT22;14000;52.056;8.510;2023-08-31T12:38:01;14.10;99.90
26278;DHT22;14000;52.056;8.510;2023-08-31T12:40:26;14.60;99.90
26278;DHT22;14000;52.056;8.510;2023-08-31T12:42:52;15.00;99.90
26278;DHT22;14000;52.056;8.510;2023-08-31T12:45:17;15.00;99.90
26278;DHT22;14000;52.056;8.510;2023-08-31T12:47:43;15.00;99.90
26278;DHT22;14000;52.056;8.510;2023-08-31T12:50:09;15.10;99.90
26278;DHT22;14000;52.056;8.510;2023-08-31T12:52:34;15.10;99.90
26278;DHT22;14000;52.056;8.510;2023-08-31T12:55:00;15.00;99.90
26278;DHT22;14000;52.056;8.510;2023-08-31T12:57:26;15.10;99.90
26278;DHT22;14000;52.056;8.510;2023-08-31T12:59:51;15.10;99.90
26278;DHT22;14000;52.056;8.510;2023-08-31T13:02:17;15.10;99.90
26278;DHT22;14000;52.056;8.510;2023-08-31T13:04:42;15.20;99.90
26278;DHT22;14000;52.056;8.510;2023-08-31T13:07:08;15.20;99.90
26278;DHT22;14000;52.056;8.510;2023-08-31T13:09:34;15.40;99.90
26278;DHT22;14000;52.056;8.510;2023-08-31T13:12:00;15.50;99.90
26278;DHT22;14000;52.056;8.510;2023-08-31T13:14:25;15.40;99.90
26278;DHT22;14000;52.056;8.510;2023-08-31T13:16:51;15.50;99.90
26278;DHT22;14000;52.056;8.510;2023-08-31T13:19:16;15.50;99.90
26278;DHT22;14000;52.056;8.510;2023-08-31T13:21:42;15.40;99.90
26278;DHT22;14000;52.056;8.510;2023-08-31T13:24:08;15.30;99.90
26278;DHT22;14000;52.056;8.510;2023-08-31T13:26:33;15.30;99.90
26278;DHT22;14000;52.056;8.510;2023-08-31T13:28:59;15.30;99.90
26278;DHT22;14000;52.056;8.510;2023-08-31T13:31:24;15.30;99.90
26278;DHT22;14000;52.056;8.510;2023-08-31T13:33:50;15.20;99.90
26278;DHT22;14000;52.056;8.510;2023-08-31T13:36:15;15.10;99.90
26278;DHT22;14000;52.056;8.510;2023-08-31T13:38:41;15.00;99.90
26278;DHT22;14000;52.056;8.510;2023-08-31T13:41:06;14.90;99.90
26278;DHT22;14000;52.056;8.510;2023-08-31T13:43:33;14.80;99.90
26278;DHT22;14000;52.056;8.510;2023-08-31T13:45:59;14.70;99.90
26278;DHT22;14000;52.056;8.510;2023-08-31T13:48:24;14.60;99.90
26278;DHT22;14000;52.056;8.510;2023-08-31T13:50:50;14.40;99.90
26278;DHT22;14000;52.056;8.510;2023-08-31T13:53:16;14.20;99.90
26278;DHT22;14000;52.056;8.510;2023-08-31T13:55:41;13.90;99.90
26278;DHT22;14000;52.056;8.510;2023-08-31T13:58:08;13.90;99.90
26278;DHT22;14000;52.056;8.510;2023-08-31T14:00:34;13.80;99.90
26278;DHT22;14000;52.056;8.510;2023-08-31T14:03:00;13.90;99.90
26278;DHT22;14000;52.056;8.510;2023-08-31T14:05:29;14.30;99.90
26278;DHT22;14000;52.056;8.510;2023-08-31T14:07:55;14.60;99.90
26278;DHT22;14000;52.056;8.510;2023-08-31T14:10:21;14.90;99.90
26278;DHT22;14000;52.056;8.510;2023-08-31T14:12:46;15.20;99.90
26278;DHT22;14000;52.056;8.510;2023-08-31T14:15:13;15.50;99.90
26278;DHT22;14000;52.056;8.510;2023-08-31T14:17:38;15.70;99.90
26278;DHT22;14000;52.056;8.510;2023-08-31T14:20:04;15.90;99.90
26278;DHT22;14000;52.056;8.510;2023-08-31T14:22:33;16.20;99.90
26278;DHT22;14000;52.056;8.510;2023-08-31T14:24:59;16.40;99.90
26278;DHT22;14000;52.056;8.510;2023-08-31T14:27:26;16.50;99.90
26278;DHT22;14000;52.056;8.510;2023-08-31T14:29:52;16.60;99.90
26278;DHT22;14000;52.056;8.510;2023-08-31T14:32:18;16.80;99.90
26278;DHT22;14000;52.056;8.510;2023-08-31T14:34:43;17.00;99.90
26278;DHT22;14000;52.056;8.510;2023-08-31T14:37:09;17.20;99.90
26278;DHT22;14000;52.056;8.510;2023-08-31T14:39:35;17.30;99.90
26278;DHT22;14000;52.056;8.510;2023-08-31T14:42:00;17.40;99.90
26278;DHT22;14000;52.056;8.510;2023-08-31T14:44:26;17.50;99.90
26278;DHT22;14000;52.056;8.510;2023-08-31T14:46:52;17.60;99.90
26278;DHT22;14000;52.056;8.510;2023-08-31T14:49:18;17.50;99.90
26278;DHT22;14000;52.056;8.510;2023-08-31T14:51:44;17.50;99.90
26278;DHT22;14000;52.056;8.510;2023-08-31T14:54:09;17.50;99.90
26278;DHT22;14000;52.056;8.510;2023-08-31T14:56:35;17.50;99.90
26278;DHT22;14000;52.056;8.510;2023-08-31T14:59:00;17.50;99.90
26278;DHT22;14000;52.056;8.510;2023-08-31T15:01:26;17.50;99.90
26278;DHT22;14000;52.056;8.510;2023-08-31T15:03:51;17.40;99.90
26278;DHT22;14000;52.056;8.510;2023-08-31T15:06:17;17.30;99.90
26278;DHT22;14000;52.056;8.510;2023-08-31T15:08:43;17.30;99.90
26278;DHT22;14000;52.056;8.510;2023-08-31T15:11:09;17.20;99.90
26278;DHT22;14000;52.056;8.510;2023-08-31T15:13:35;17.10;99.90
26278;DHT22;14000;52.056;8.510;2023-08-31T15:16:01;17.10;99.90
26278;DHT22;14000;52.056;8.510;2023-08-31T15:18:27;16.90;99.90
26278;DHT22;14000;52.056;8.510;2023-08-31T15:20:53;16.80;99.90
26278;DHT22;14000;52.056;8.510;2023-08-31T15:23:19;16.70;99.90
26278;DHT22;14000;52.056;8.510;2023-08-31T15:25:45;16.60;99.90
26278;DHT22;14000;52.056;8.510;2023-08-31T15:28:10;16.60;99.90
26278;DHT22;14000;52.056;8.510;2023-08-31T15:30:36;16.60;99.90
26278;DHT22;14000;52.056;8.510;2023-08-31T15:33:02;16.60;99.90
26278;DHT22;14000;52.056;8.510;2023-08-31T15:35:31;16.50;99.90
26278;DHT22;14000;52.056;8.510;2023-08-31T15:37:58;16.40;99.90
26278;DHT22;14000;52.056;8.510;2023-08-31T15:40:24;16.20;99.90
26278;DHT22;14000;52.056;8.510;2023-08-31T15:42:50;16.00;99.90